N999SB KOKC-KDFW
Flight info
| Callsign | N999SB |
|---|---|
| Flight time | N/A |
| Altitude | 27000 |
| Route | MUDDE3 MUDDE RBUKL VKTRY2 |
| Aircraft | C700/M-SBDGHM1RWXY/LB2 |
Departure
| Time | 2026-04-27 23:29 |
|---|---|
| Airport | OKC Will Rogers World Airport (KOKC) |
Arrival
| Time | N/A |
|---|---|
| Airport | Dallas Fort Worth International Airport (KDFW) |
| Time | Latitude | Longitude | Altitude | Speed | Heading |
|---|---|---|---|---|---|
| 2026-04-27 23:11 | 35.39598 | -97.58523 | 1287 ft | 0 kts | 108° |
| 2026-04-27 23:19 | 35.39599 | -97.58521 | 1287 ft | 0 kts | 86° |
| 2026-04-27 23:20 | 35.39601 | -97.58519 | 1286 ft | 1 kts | 50° |
| 2026-04-27 23:20 | 35.39607 | -97.58524 | 1286 ft | 1 kts | 301° |
| 2026-04-27 23:20 | 35.39621 | -97.58563 | 1287 ft | 8 kts | 303° |
| 2026-04-27 23:20 | 35.39670 | -97.58611 | 1286 ft | 11 kts | 343° |
| 2026-04-27 23:21 | 35.39713 | -97.58644 | 1287 ft | 11 kts | 286° |
| 2026-04-27 23:21 | 35.39693 | -97.58733 | 1287 ft | 6 kts | 164° |
| 2026-04-27 23:21 | 35.39649 | -97.58724 | 1287 ft | 8 kts | 178° |
| 2026-04-27 23:21 | 35.39599 | -97.58726 | 1288 ft | 15 kts | 182° |
| 2026-04-27 23:22 | 35.39450 | -97.58726 | 1288 ft | 28 kts | 180° |
| 2026-04-27 23:22 | 35.39306 | -97.58726 | 1289 ft | 17 kts | 180° |
| 2026-04-27 23:22 | 35.39237 | -97.58754 | 1292 ft | 2 kts | 224° |
| 2026-04-27 23:22 | 35.39224 | -97.58796 | 1292 ft | 15 kts | 263° |
| 2026-04-27 23:23 | 35.39220 | -97.58998 | 1289 ft | 28 kts | 264° |
| 2026-04-27 23:23 | 35.39144 | -97.59062 | 1288 ft | 21 kts | 180° |
| 2026-04-27 23:23 | 35.38954 | -97.59062 | 1290 ft | 41 kts | 180° |
| 2026-04-27 23:23 | 35.38733 | -97.59062 | 1287 ft | 31 kts | 180° |
| 2026-04-27 23:24 | 35.38526 | -97.59061 | 1290 ft | 27 kts | 180° |
| 2026-04-27 23:24 | 35.38510 | -97.59062 | 1290 ft | 0 kts | 180° |
| 2026-04-27 23:24 | 35.38509 | -97.59062 | 1290 ft | 1 kts | 180° |
| 2026-04-27 23:25 | 35.38408 | -97.59061 | 1287 ft | 23 kts | 179° |
| 2026-04-27 23:25 | 35.38244 | -97.59059 | 1289 ft | 23 kts | 180° |
| 2026-04-27 23:25 | 35.38081 | -97.59061 | 1288 ft | 23 kts | 180° |
| 2026-04-27 23:25 | 35.37922 | -97.59062 | 1285 ft | 11 kts | 179° |
| 2026-04-27 23:26 | 35.37919 | -97.59062 | 1285 ft | 0 kts | 178° |
| 2026-04-27 23:26 | 35.37897 | -97.59061 | 1285 ft | 0 kts | 178° |
| 2026-04-27 23:26 | 35.37896 | -97.59061 | 1280 ft | 1 kts | 178° |
| 2026-04-27 23:27 | 35.37861 | -97.59052 | 1288 ft | 10 kts | 149° |
| 2026-04-27 23:27 | 35.37845 | -97.59030 | 1287 ft | 11 kts | 123° |
| 2026-04-27 23:27 | 35.37841 | -97.59020 | 1286 ft | 0 kts | 112° |
| 2026-04-27 23:28 | 35.37838 | -97.58971 | 1288 ft | 10 kts | 88° |
| 2026-04-27 23:28 | 35.37874 | -97.58901 | 1286 ft | 12 kts | 14° |
| 2026-04-27 23:28 | 35.37982 | -97.58895 | 1285 ft | 19 kts | 360° |
| 2026-04-27 23:28 | 35.38144 | -97.58894 | 1284 ft | 27 kts | 360° |
| 2026-04-27 23:29 | 35.38407 | -97.58894 | 1286 ft | 65 kts | 360° |
| 2026-04-27 23:29 | 35.39103 | -97.58893 | 1291 ft | 135 kts | 1° |
| 2026-04-27 23:29 | 35.40228 | -97.58882 | 1555 ft | 171 kts | 359° |
| 2026-04-27 23:29 | 35.41480 | -97.58803 | 2423 ft | 194 kts | 11° |
| 2026-04-27 23:30 | 35.42830 | -97.58096 | 3016 ft | 235 kts | 24° |
| 2026-04-27 23:30 | 35.44405 | -97.57206 | 2938 ft | 250 kts | 23° |
| 2026-04-27 23:30 | 35.45949 | -97.56373 | 2799 ft | 234 kts | 22° |
| 2026-04-27 23:30 | 35.47413 | -97.55588 | 2653 ft | 231 kts | 22° |
| 2026-04-27 23:31 | 35.48913 | -97.54791 | 2531 ft | 236 kts | 21° |
| 2026-04-27 23:31 | 35.50380 | -97.54005 | 2823 ft | 223 kts | 22° |
| 2026-04-27 23:31 | 35.51755 | -97.53265 | 3024 ft | 215 kts | 22° |
| 2026-04-27 23:31 | 35.53110 | -97.52532 | 3194 ft | 210 kts | 20° |
| 2026-04-27 23:32 | 35.54494 | -97.52101 | 3297 ft | 204 kts | 354° |
| 2026-04-27 23:32 | 35.55751 | -97.52802 | 3402 ft | 202 kts | 314° |
| 2026-04-27 23:32 | 35.56306 | -97.54351 | 3555 ft | 204 kts | 275° |
| 2026-04-27 23:32 | 35.55890 | -97.56008 | 3737 ft | 210 kts | 234° |
| 2026-04-27 23:33 | 35.54758 | -97.57082 | 4201 ft | 201 kts | 214° |
| 2026-04-27 23:33 | 35.53585 | -97.57911 | 4570 ft | 193 kts | 214° |
| 2026-04-27 23:33 | 35.52426 | -97.58708 | 4880 ft | 187 kts | 213° |
| 2026-04-27 23:33 | 35.51304 | -97.59491 | 5128 ft | 183 kts | 213° |
| 2026-04-27 23:34 | 35.50216 | -97.60275 | 5415 ft | 178 kts | 213° |
| 2026-04-27 23:34 | 35.49162 | -97.61058 | 5647 ft | 176 kts | 213° |
| 2026-04-27 23:34 | 35.48137 | -97.61821 | 5896 ft | 172 kts | 213° |
| 2026-04-27 23:34 | 35.47114 | -97.62573 | 6124 ft | 170 kts | 212° |
| 2026-04-27 23:35 | 35.46110 | -97.63332 | 6366 ft | 168 kts | 213° |
| 2026-04-27 23:35 | 35.45116 | -97.64071 | 6579 ft | 165 kts | 213° |
| 2026-04-27 23:35 | 35.43984 | -97.64339 | 6718 ft | 177 kts | 171° |
| 2026-04-27 23:35 | 35.42980 | -97.63439 | 6856 ft | 194 kts | 126° |
| 2026-04-27 23:36 | 35.42721 | -97.61787 | 6991 ft | 207 kts | 82° |
| 2026-04-27 23:36 | 35.43408 | -97.60235 | 7139 ft | 210 kts | 45° |
| 2026-04-27 23:36 | 35.44456 | -97.58969 | 7224 ft | 217 kts | 42° |
| 2026-04-27 23:36 | 35.45658 | -97.57561 | 6390 ft | 266 kts | 43° |
| 2026-04-27 23:37 | 35.47100 | -97.55907 | 4987 ft | 276 kts | 42° |
| 2026-04-27 23:37 | 35.48335 | -97.54493 | 4805 ft | 217 kts | 42° |
| 2026-04-27 23:37 | 35.49359 | -97.53401 | 4687 ft | 181 kts | 26° |
| 2026-04-27 23:37 | 35.50621 | -97.52885 | 4561 ft | 199 kts | 11° |
| 2026-04-27 23:38 | 35.51968 | -97.53021 | 4200 ft | 207 kts | 327° |
| 2026-04-27 23:38 | 35.52976 | -97.54310 | 4137 ft | 218 kts | 304° |
| 2026-04-27 23:38 | 35.53810 | -97.55913 | 3899 ft | 219 kts | 294° |
| 2026-04-27 23:38 | 35.53833 | -97.57595 | 3757 ft | 185 kts | 250° |
| 2026-04-27 23:39 | 35.53309 | -97.58902 | 3658 ft | 168 kts | 249° |
| 2026-04-27 23:39 | 35.52789 | -97.60228 | 3667 ft | 171 kts | 252° |
| 2026-04-27 23:39 | 35.52375 | -97.61613 | 3457 ft | 178 kts | 256° |
| 2026-04-27 23:39 | 35.51995 | -97.63052 | 3346 ft | 175 kts | 258° |
| 2026-04-27 23:40 | 35.51641 | -97.64486 | 3192 ft | 178 kts | 256° |
| 2026-04-27 23:40 | 35.51250 | -97.65903 | 3210 ft | 168 kts | 256° |
| 2026-04-27 23:40 | 35.50927 | -97.67286 | 3157 ft | 170 kts | 264° |
| 2026-04-27 23:40 | 35.50450 | -97.68647 | 3507 ft | 180 kts | 223° |
| 2026-04-27 23:41 | 35.49371 | -97.69313 | 3681 ft | 180 kts | 199° |
| 2026-04-27 23:41 | 35.48143 | -97.69896 | 3339 ft | 212 kts | 208° |
| 2026-04-27 23:41 | 35.46794 | -97.70684 | 3733 ft | 202 kts | 212° |
| 2026-04-27 23:41 | 35.45488 | -97.71179 | 3507 ft | 198 kts | 178° |
| 2026-04-27 23:42 | 35.44247 | -97.70541 | 3165 ft | 198 kts | 136° |
| 2026-04-27 23:42 | 35.43343 | -97.69326 | 2231 ft | 197 kts | 124° |
| 2026-04-27 23:42 | 35.42484 | -97.68130 | 1856 ft | 174 kts | 129° |
| 2026-04-27 23:42 | 35.41664 | -97.66933 | 2041 ft | 197 kts | 123° |
| 2026-04-27 23:43 | 35.40722 | -97.65674 | 2318 ft | 207 kts | 142° |
| 2026-04-27 23:43 | 35.39323 | -97.64960 | 2237 ft | 228 kts | 164° |
| 2026-04-27 23:43 | 35.37760 | -97.64446 | 2171 ft | 241 kts | 164° |
| 2026-04-27 23:43 | 35.36175 | -97.63928 | 2563 ft | 228 kts | 164° |
| 2026-04-27 23:44 | 35.34587 | -97.63419 | 2439 ft | 240 kts | 165° |
| 2026-04-27 23:44 | 35.33087 | -97.62767 | 2722 ft | 198 kts | 148° |
| 2026-04-27 23:44 | 35.32167 | -97.61649 | 2786 ft | 185 kts | 117° |
| 2026-04-27 23:44 | 35.31990 | -97.60231 | 2659 ft | 164 kts | 73° |
| 2026-04-27 23:45 | 35.32636 | -97.59392 | 2213 ft | 129 kts | 354° |
| 2026-04-27 23:45 | 35.33671 | -97.59575 | 1877 ft | 166 kts | 351° |
| 2026-04-27 23:45 | 35.34702 | -97.60010 | 1865 ft | 147 kts | 339° |
| 2026-04-27 23:45 | 35.35633 | -97.60404 | 1641 ft | 137 kts | 348° |
| 2026-04-27 23:46 | 35.36529 | -97.60600 | 1506 ft | 128 kts | 358° |
| 2026-04-27 23:46 | 35.37455 | -97.60543 | 1661 ft | 130 kts | 357° |
| 2026-04-27 23:46 | 35.38336 | -97.60576 | 1373 ft | 126 kts | 1° |
| 2026-04-27 23:46 | 35.39146 | -97.60567 | 1303 ft | 119 kts | 2° |
| 2026-04-27 23:47 | 35.40040 | -97.60562 | 1581 ft | 132 kts | 359° |
| 2026-04-27 23:47 | 35.40908 | -97.60669 | 2139 ft | 120 kts | 339° |
| 2026-04-27 23:47 | 35.41652 | -97.61524 | 1913 ft | 189 kts | 308° |
| 2026-04-27 23:47 | 35.42299 | -97.63115 | 2455 ft | 195 kts | 294° |
| 2026-04-27 23:48 | 35.42683 | -97.64788 | 2589 ft | 242 kts | 273° |
| 2026-04-27 23:48 | 35.41942 | -97.66520 | 2475 ft | 229 kts | 215° |
| 2026-04-27 23:48 | 35.40732 | -97.67557 | 2293 ft | 203 kts | 213° |
| 2026-04-27 23:48 | 35.39511 | -97.68157 | 2282 ft | 178 kts | 185° |
| 2026-04-27 23:49 | 35.38268 | -97.67893 | 2231 ft | 197 kts | 162° |
| 2026-04-27 23:49 | 35.36868 | -97.67396 | 2597 ft | 222 kts | 163° |
| 2026-04-27 23:49 | 35.35432 | -97.66899 | 2591 ft | 212 kts | 163° |
| 2026-04-27 23:49 | 35.34025 | -97.66409 | 2443 ft | 208 kts | 164° |
| 2026-04-27 23:50 | 35.32658 | -97.65852 | 2339 ft | 207 kts | 152° |
| 2026-04-27 23:50 | 35.31822 | -97.64406 | 2337 ft | 224 kts | 95° |
| 2026-04-27 23:50 | 35.32133 | -97.62679 | 2338 ft | 208 kts | 47° |
| 2026-04-27 23:50 | 35.33378 | -97.61964 | 2159 ft | 186 kts | 8° |
| 2026-04-27 23:51 | 35.34494 | -97.61604 | 2186 ft | 130 kts | 18° |
| 2026-04-27 23:51 | 35.35291 | -97.61124 | 1885 ft | 126 kts | 23° |
| 2026-04-27 23:51 | 35.36147 | -97.60793 | 1791 ft | 140 kts | 13° |
| 2026-04-27 23:51 | 35.37082 | -97.60616 | 1594 ft | 128 kts | 8° |
| 2026-04-27 23:52 | 35.37956 | -97.60561 | 1350 ft | 120 kts | 0° |
| 2026-04-27 23:52 | 35.38681 | -97.60568 | 1292 ft | 62 kts | 358° |
| 2026-04-27 23:52 | 35.38906 | -97.60572 | 1295 ft | 15 kts | 0° |
| 2026-04-27 23:52 | 35.38973 | -97.60530 | 1296 ft | 5 kts | 70° |
| 2026-04-27 23:53 | 35.38979 | -97.60485 | 1295 ft | 6 kts | 90° |
| 2026-04-27 23:53 | 35.38978 | -97.60451 | 1295 ft | 0 kts | 93° |
| 2026-04-27 23:55 | 35.38976 | -97.60212 | 1292 ft | 53 kts | 89° |
| 2026-04-27 23:56 | 35.38982 | -97.59792 | 1289 ft | 46 kts | 89° |
| 2026-04-27 23:56 | 35.38976 | -97.59428 | 1288 ft | 40 kts | 91° |
| 2026-04-27 23:56 | 35.38979 | -97.59179 | 1288 ft | 15 kts | 89° |
| 2026-04-27 23:56 | 35.38985 | -97.59090 | 1289 ft | 7 kts | 52° |
| 2026-04-27 23:57 | 35.39087 | -97.59061 | 1288 ft | 25 kts | 1° |
| 2026-04-27 23:57 | 35.39121 | -97.59060 | 1288 ft | 0 kts | 1° |
| 2026-04-27 23:57 | 35.39186 | -97.59061 | 1288 ft | 12 kts | 12° |
| 2026-04-27 23:57 | 35.39217 | -97.59001 | 1289 ft | 10 kts | 99° |
| 2026-04-27 23:58 | 35.39222 | -97.58851 | 1291 ft | 39 kts | 85° |
| 2026-04-27 23:58 | 35.39312 | -97.58728 | 1289 ft | 20 kts | 1° |
| 2026-04-27 23:58 | 35.39487 | -97.58726 | 1288 ft | 30 kts | 0° |
| 2026-04-27 23:58 | 35.39602 | -97.58726 | 1288 ft | 6 kts | 359° |
| 2026-04-27 23:59 | 35.39693 | -97.58725 | 1287 ft | 7 kts | 8° |
| 2026-04-27 23:59 | 35.39708 | -97.58625 | 1287 ft | 19 kts | 130° |
| 2026-04-27 23:59 | 35.39615 | -97.58554 | 1287 ft | 11 kts | 132° |
| 2026-04-27 23:59 | 35.39601 | -97.58526 | 1285 ft | 0 kts | 109° |